GW0323 Weather Reports


Display with metric or nautical units.
time (UTC)temp
F
wind
direction
speed
MPH
gust
MPH
rain 1hr
in
rain 24hr
in
rain mn
in
humidity
%
barometer
mb
20260506114137 35 267 7.0 11.0 0.00 0.00 0.00 67 1014.0
20260506113619 35 295 4.0 13.0 0.00 0.00 0.00 68 1014.0
20260506113120 35 319 8.0 13.0 0.00 0.00 0.00 69 1013.9
20260506112624 34 5 5.0 10.0 0.00 0.00 0.00 70 1013.8
20260506112126 34 287 3.0 10.0 0.00 0.00 0.00 72 1013.7
20260506111627 34 343 2.0 6.0 0.00 0.00 0.00 72 1013.5
20260506111130 34 335 2.0 5.0 0.00 0.00 0.00 70 1013.4
20260506110633 34 325 2.0 5.0 0.00 0.00 0.00 72 1013.4
20260506110115 34 325 3.0 5.0 0.00 0.00 0.00 72 1013.3
20260506105617 34 340 3.0 4.0 0.00 0.00 0.00 72 1013.2
20260506105118 34 340 2.0 4.0 0.00 0.00 0.00 71 1013.2
20260506104622 35 340 2.0 4.0 0.00 0.00 0.00 70 1013.1
20260506104124 35 340 1.0 3.0 0.00 0.00 0.00 70 1013.1
20260506103628 35 340 2.0 5.0 0.00 0.00 0.00 70 1013.0
20260506103150 35 340 3.0 8.0 0.00 0.00 0.00 69 1013.1
20260506102631 35 320 5.0 8.0 0.00 0.00 0.00 70 1013.2
20260506102136 35 342 4.0 5.0 0.00 0.00 0.00 70 1013.2
20260506101616 35 341 3.0 6.0 0.00 0.00 0.00 70 1013.2
20260506101114 35 341 3.0 6.0 0.00 0.00 0.00 71 1013.3
20260506100616 35 340 4.0 6.0 0.00 0.00 0.00 70 1013.1
20260506100118 35 12 3.0 4.0 0.00 0.00 0.00 70 1013.1
20260506095620 35 9 2.0 5.0 0.00 0.00 0.00 69 1013.1
20260506095122 36 338 2.0 6.0 0.00 0.00 0.00 68 1013.0
20260506094624 36 350 4.0 6.0 0.00 0.00 0.00 68 1012.8
20260506094127 36 350 3.0 5.0 0.00 0.00 0.00 68 1012.7
20260506093630 36 350 3.0 5.0 0.00 0.00 0.00 68 1012.7
20260506093131 36 350 3.0 5.0 0.00 0.00 0.00 68 1012.6
20260506092612 36 342 4.0 5.0 0.00 0.00 0.00 67 1012.6
20260506092114 36 307 3.0 5.0 0.00 0.00 0.00 68 1012.7
20260506091617 37 323 4.0 5.0 0.00 0.00 0.00 66 1012.8
20260506091122 37 349 1.0 4.0 0.00 0.00 0.00 66 1012.7
20260506090625 36 350 3.0 4.0 0.00 0.00 0.00 67 1012.6
20260506090127 37 342 2.0 5.0 0.00 0.00 0.00 67 1012.5
20260506085631 37 346 1.0 5.0 0.00 0.00 0.00 67 1012.5
20260506085151 37 5 2.0 4.0 0.00 0.00 0.00 67 1012.4
20260506084613 37 5 1.0 4.0 0.00 0.00 0.00 66 1012.4
20260506084116 37 5 2.0 4.0 0.00 0.00 0.00 67 1012.4
20260506083619 37 24 2.0 4.0 0.00 0.00 0.00 67 1012.2
20260506083120 37 24 1.0 4.0 0.00 0.00 0.00 67 1012.3
20260506082626 37 25 2.0 4.0 0.00 0.00 0.00 66 1012.3
20260506082149 37 17 1.0 3.0 0.00 0.00 0.00 67 1012.3
20260506081631 37 18 2.0 4.0 0.00 0.00 0.00 67 1012.3
20260506081115 37 17 1.0 5.0 0.00 0.00 0.00 67 1012.4
20260506080619 37 18 2.0 5.0 0.00 0.00 0.00 67 1012.3
20260506080121 37 350 2.0 5.0 0.00 0.00 0.00 67 1012.2
20260506073116 39 17 2.0 4.0 0.00 0.00 0.00 62 1012.2
20260506072619 38 17 2.0 4.0 0.00 0.00 0.00 64 1012.1
20260506072121 39 17 2.0 4.0 0.00 0.00 0.00 64 1012.0
20260506071624 39 18 0.0 4.0 0.00 0.00 0.00 63 1011.8
20260506071129 39 18 3.0 4.0 0.00 0.00 0.00 64 1011.8
20260506070651 39 18 1.0 5.0 0.00 0.00 0.00 63 1011.8
20260506070135 39 15 1.0 6.0 0.00 0.00 0.00 64 1011.8
20260506062120 42 263 9.0 12.0 0.00 0.00 0.00 57 1011.6
20260506061623 42 323 6.0 11.0 0.00 0.00 0.00 55 1011.6
20260506061127 43 319 5.0 11.0 0.00 0.00 0.00 55 1011.6
20260506060630 43 306 7.0 12.0 0.00 0.00 0.00 56 1011.7
20260506060115 42 315 5.0 12.0 0.00 0.00 0.00 56 1011.7
20260506051145 39 329 2.0 5.0 0.00 0.00 0.00 70 1011.3
20260506050629 38 46 3.0 4.0 0.00 0.00 0.00 70 1011.2
20260506050152 38 338 1.0 6.0 0.00 0.00 0.00 70 1011.2
20260506045118 39 34 2.0 6.0 0.00 0.00 0.00 68 1011.1
20260506044640 40 292 2.0 5.0 0.00 0.00 0.00 64 1011.1
20260506044123 41 14 1.0 6.0 0.00 0.00 0.00 64 1011.0
20260506043627 42 349 4.0 6.0 0.00 0.00 0.00 58 1011.1
20260506043130 42 24 3.0 8.0 0.00 0.00 0.00 60 1011.1
20260506042614 41 20 3.0 5.0 0.00 0.00 0.00 61 1011.1
20260506042118 41 348 3.0 5.0 0.00 0.00 0.00 61 1011.1
20260506041620 40 10 2.0 5.0 0.00 0.00 0.00 65 1011.1
20260506041121 41 325 1.0 4.0 0.00 0.00 0.00 65 1011.1
20260506040623 42 338 1.0 4.0 0.00 0.00 0.00 63 1011.0
20260506040127 41 343 2.0 4.0 0.00 0.00 0.00 62 1011.0
20260506035624 40 343 2.0 4.0 0.00 0.00 0.00 68 1011.0
20260506035127 41 321 2.0 4.0 0.00 0.00 0.00 66 1011.0
20260506034630 41 336 1.0 4.0 0.00 0.00 0.00 66 1010.9
20260506034149 41 336 1.0 4.0 0.00 0.00 0.00 66 1010.9
20260506033631 42 308 0.0 4.0 0.00 0.00 0.00 65 1010.8
20260506033114 42 5 2.0 4.0 0.00 0.00 0.00 64 1010.9
20260506032618 43 9 1.0 3.0 0.00 0.00 0.00 62 1010.9
20260506032141 44 9 0.0 3.0 0.00 0.00 0.00 59 1010.9
20260506031623 45 9 1.0 3.0 0.00 0.00 0.00 53 1010.9
20260506031126 46 9 1.0 6.0 0.00 0.00 0.00 47 1010.9
20260506030629 46 360 4.0 6.0 0.00 0.00 0.00 47 1010.9
20260506030131 46 5 3.0 6.0 0.00 0.00 0.00 46 1010.8
20260506025613 46 32 2.0 6.0 0.00 0.00 0.00 47 1010.8
20260506025116 46 5 1.0 5.0 0.00 0.00 0.00 46 1010.8
20260506024619 46 349 0.0 5.0 0.00 0.00 0.00 47 1010.7
20260506024141 46 334 2.0 5.0 0.00 0.00 0.00 50 1010.7
20260506023625 46 350 3.0 6.0 0.00 0.00 0.00 48 1010.6
20260506023127 45 350 3.0 6.0 0.00 0.00 0.00 48 1010.6
20260506022629 45 301 0.0 5.0 0.00 0.00 0.00 49 1010.6
20260506022153 45 350 2.0 4.0 0.00 0.00 0.00 51 1010.5
20260506021615 45 349 3.0 4.0 0.00 0.00 0.00 49 1010.4
20260506021116 46 349 2.0 5.0 0.00 0.00 0.00 46 1010.4
20260506020622 46 23 2.0 5.0 0.00 0.00 0.00 50 1010.3
20260506020126 46 19 3.0 5.0 0.00 0.00 0.00 45 1010.2
20260506015631 47 334 2.0 7.0 0.00 0.00 0.00 45 1010.3
20260506015132 47 280 2.0 11.0 0.00 0.00 0.00 43 1010.2
20260506014614 47 308 5.0 11.0 0.00 0.00 0.00 43 1010.2
20260506014137 47 331 3.0 11.0 0.00 0.00 0.00 43 1010.1
20260506013620 47 350 6.0 11.0 0.00 0.00 0.00 42 1010.1
20260506013121 48 350 5.0 11.0 0.00 0.00 0.00 43 1010.0
20260506012625 48 314 5.0 9.0 0.00 0.00 0.00 43 1010.0
20260506012129 48 350 5.0 11.0 0.00 0.00 0.00 41 1010.0
20260506011653 48 292 3.0 15.0 0.00 0.00 0.00 41 1010.0
20260506011116 48 331 3.0 16.0 0.00 0.00 0.00 41 1009.9
20260506010618 49 272 8.0 15.0 0.00 0.00 0.00 41 1009.9
20260506010118 49 343 6.0 13.0 0.00 0.00 0.00 40 1009.8
20260506005621 49 336 6.0 13.0 0.00 0.00 0.00 40 1009.8
20260506005123 49 349 6.0 12.0 0.00 0.00 0.00 40 1009.7
20260506004648 49 325 5.0 11.0 0.00 0.00 0.00 39 1009.6
20260506004130 49 28 4.0 10.0 0.00 0.00 0.00 39 1009.6
20260506003615 49 10 5.0 11.0 0.00 0.00 0.00 39 1009.6
20260506003119 49 235 6.0 14.0 0.00 0.00 0.00 38 1009.6
20260506002623 49 325 9.0 15.0 0.00 0.00 0.00 39 1009.5
20260506002126 49 16 6.0 15.0 0.00 0.00 0.00 40 1009.5
20260506001631 49 9 9.0 16.0 0.00 0.00 0.00 38 1009.5
20260506001114 49 289 8.0 16.0 0.00 0.00 0.00 39 1009.5
20260506000618 49 348 7.0 10.0 0.00 0.00 0.00 39 1009.4
20260506000121 49 274 7.0 10.0 0.00 0.00 0.00 38 1009.3
20260505235626 50 336 4.0 13.0 0.00 0.00 0.00 39 1009.4
20260505235130 50 296 5.0 13.0 0.00 0.00 0.00 37 1009.4
20260505234613 50 300 2.0 16.0 0.00 0.00 0.00 37 1009.5
20260505234114 50 283 5.0 16.0 0.00 0.00 0.00 36 1009.4
20260505233616 50 31 4.0 14.0 0.00 0.00 0.00 36 1009.3
20260505233139 50 360 4.0 15.0 0.00 0.00 0.00 38 1009.3
20260505232622 50 338 6.0 15.0 0.00 0.00 0.00 37 1009.4
20260505232123 50 248 9.0 16.0 0.00 0.00 0.00 36 1009.5
20260505231625 50 334 4.0 16.0 0.00 0.00 0.00 36 1009.4
20260505231127 50 319 7.0 12.0 0.00 0.00 0.00 36 1009.4
20260505230629 50 288 5.0 12.0 0.00 0.00 0.00 36 1009.4
20260505230130 50 304 4.0 12.0 0.00 0.00 0.00 35 1009.3
20260505225612 50 261 3.0 10.0 0.00 0.00 0.00 38 1009.4
20260505225136 50 253 6.0 10.0 0.00 0.00 0.00 40 1009.5
20260505224616 50 117 6.0 15.0 0.00 0.00 0.00 36 1009.5
20260505224138 50 350 4.0 17.0 0.00 0.00 0.00 37 1009.5
20260505223622 50 327 9.0 17.0 0.00 0.00 0.00 36 1009.5
20260505223122 50 15 8.0 15.0 0.00 0.00 0.00 35 1009.5
20260505222625 50 337 9.0 15.0 0.00 0.00 0.00 35 1009.5
20260505222129 50 345 8.0 16.0 0.00 0.00 0.00 35 1009.4
20260505221612 50 285 4.0 16.0 0.00 0.00 0.00 38 1009.3
20260505221114 50 348 7.0 14.0 0.00 0.00 0.00 35 1009.3
20260505220637 50 264 7.0 15.0 0.00 0.00 0.00 35 1009.3
20260505220118 50 315 6.0 16.0 0.00 0.00 0.00 35 1009.4
20260505215621 50 17 6.0 16.0 0.00 0.00 0.00 37 1009.3
20260505215122 50 32 7.0 13.0 0.00 0.00 0.00 36 1009.5
20260505214625 50 286 7.0 18.0 0.00 0.00 0.00 36 1009.4
20260505214127 50 311 10.0 18.0 0.00 0.00 0.00 35 1009.5
20260505213630 50 338 11.0 18.0 0.00 0.00 0.00 36 1009.4
20260505213113 50 269 12.0 18.0 0.00 0.00 0.00 37 1009.5
20260505212614 51 221 8.0 18.0 0.00 0.00 0.00 34 1009.4
20260505212117 52 263 7.0 15.0 0.00 0.00 0.00 39 1009.3
20260505211617 51 292 6.0 18.0 0.00 0.00 0.00 36 1009.4
20260505211140 51 340 9.0 19.0 0.00 0.00 0.00 37 1009.5
20260505210620 51 310 10.0 17.0 0.00 0.00 0.00 36 1009.5
20260505210125 51 24 10.0 17.0 0.00 0.00 0.00 37 1009.5
20260505205625 51 303 7.0 17.0 0.00 0.00 0.00 36 1009.4
20260505205130 51 250 7.0 22.0 0.00 0.00 0.00 37 1009.5
20260505204632 51 315 10.0 22.0 0.00 0.00 0.00 38 1009.4
20260505204113 51 308 6.0 23.0 0.00 0.00 0.00 36 1009.5
20260505203615 51 33 10.0 23.0 0.00 0.00 0.00 35 1009.6
20260505203117 52 348 11.0 20.0 0.00 0.00 0.00 36 1009.6
20260505202641 51 270 8.0 19.0 0.00 0.00 0.00 36 1009.6
20260505202122 51 242 7.0 30.0 0.00 0.00 0.00 41 1009.5
20260505201645 52 309 13.0 30.0 0.00 0.00 0.00 36 1009.6
20260505201146 52 290 10.0 22.0 0.00 0.00 0.00 37 1009.5
20260505200627 51 283 9.0 20.0 0.00 0.00 0.00 34 1009.6
20260505200113 51 315 5.0 15.0 0.00 0.00 0.00 38 1009.5
20260505195613 51 289 7.0 20.0 0.00 0.00 0.00 36 1009.6
20260505195118 52 339 10.0 20.0 0.00 0.00 0.00 37 1009.6
20260505194620 51 334 7.0 17.0 0.00 0.00 0.00 35 1009.6
20260505194126 51 293 6.0 21.0 0.00 0.00 0.00 36 1009.6
20260505193629 51 335 8.0 21.0 0.00 0.00 0.00 38 1009.6
20260505193113 51 308 10.0 20.0 0.00 0.00 0.00 34 1009.7
20260505192614 52 341 7.0 19.0 0.00 0.00 0.00 35 1009.7
20260505192118 53 250 12.0 19.0 0.00 0.00 0.00 41 1009.6
20260505191620 52 327 7.0 16.0 0.00 0.00 0.00 43 1009.6
20260505191143 51 277 5.0 17.0 0.00 0.00 0.00 37 1009.7
20260505190648 52 302 5.0 17.0 0.00 0.00 0.00 40 1009.6
20260505190131 51 266 6.0 23.0 0.00 0.00 0.00 36 1009.6
20260505185634 50 237 5.0 24.0 0.00 0.00 0.00 38 1009.7
20260505185135 50 238 9.0 16.0 0.00 0.00 0.00 35 1009.8
20260505184617 50 360 8.0 16.0 0.00 0.00 0.00 42 1009.8
20260505184119 50 321 7.0 16.0 0.00 0.00 0.00 36 1009.7
20260505183621 50 346 9.0 24.0 0.00 0.00 0.00 39 1009.7
20260505183123 50 257 8.0 25.0 0.00 0.00 0.00 39 1009.7
20260505182625 51 292 10.0 21.0 0.00 0.00 0.00 45 1009.6
20260505182129 50 340 10.0 21.0 0.00 0.00 0.00 36 1009.5
20260505181631 50 296 12.0 21.0 0.00 0.00 0.00 39 1009.4
20260505181134 49 302 6.0 20.0 0.00 0.00 0.00 36 1009.5
20260505180613 50 275 4.0 15.0 0.00 0.00 0.00 42 1009.5
20260505180153 49 323 8.0 18.0 0.00 0.00 0.00 41 1009.4
20260505175616 50 11 9.0 18.0 0.00 0.00 0.00 34 1009.4
20260505175117 50 271 6.0 22.0 0.00 0.00 0.00 41 1009.6
20260505174621 49 276 11.0 18.0 0.00 0.00 0.00 39 1009.5
20260505174125 49 329 10.0 18.0 0.00 0.00 0.00 39 1009.6
20260505173613 49 229 10.0 20.0 0.00 0.00 0.00 45 1009.6
20260505173151 49 321 13.0 20.0 0.00 0.00 0.00 37 1009.6
20260505172631 49 337 8.0 20.0 0.00 0.00 0.00 36 1009.5
20260505172114 49 350 10.0 20.0 0.00 0.00 0.00 36 1009.6
20260505171618 49 61 3.0 20.0 0.00 0.00 0.00 35 1009.5
20260505171120 49 341 7.0 19.0 0.00 0.00 0.00 35 1009.7
20260505170622 49 218 7.0 19.0 0.00 0.00 0.00 35 1009.7
20260505170146 49 333 8.0 20.0 0.00 0.00 0.00 38 1009.6
20260505165629 49 254 8.0 26.0 0.00 0.00 0.00 34 1009.7
20260505165112 49 360 13.0 26.0 0.00 0.00 0.00 34 1009.8
20260505164616 48 23 11.0 21.0 0.00 0.00 0.00 39 1009.7
20260505164121 48 277 6.0 23.0 0.00 0.00 0.00 36 1009.8
20260505163623 48 350 13.0 23.0 0.00 0.00 0.00 34 1009.7
20260505163127 48 253 8.0 21.0 0.00 0.00 0.00 38 1009.8
20260505162614 48 181 8.0 18.0 0.00 0.00 0.00 36 1009.7
20260505162127 48 169 4.0 18.0 0.00 0.00 0.00 38 1009.8
20260505161630 49 101 10.0 18.0 0.00 0.00 0.00 35 1009.6
20260505161112 48 240 8.0 15.0 0.00 0.00 0.00 38 1009.5
20260505160616 48 232 6.0 13.0 0.00 0.00 0.00 35 1009.6
20260505160119 48 275 4.0 17.0 0.00 0.00 0.00 41 1009.5
20260505153136 47 350 10.0 20.0 0.00 0.00 0.00 38 1009.6
20260505152638 47 200 10.0 20.0 0.00 0.00 0.00 35 1009.4
20260505152118 47 239 10.0 20.0 0.00 0.00 0.00 38 1009.4
20260505151641 47 325 4.0 18.0 0.00 0.00 0.00 40 1009.4
20260505151124 46 350 11.0 18.0 0.00 0.00 0.00 37 1009.4
20260505150626 46 261 7.0 17.0 0.00 0.00 0.00 37 1009.4
20260505150148 46 360 5.0 18.0 0.00 0.00 0.00 36 1009.4
20260505140614 45 292 8.0 18.0 0.00 0.00 0.00 46 1009.5
20260505140117 44 303 6.0 18.0 0.00 0.00 0.00 49 1009.5
20260505130128 43 293 7.0 14.0 0.00 0.00 0.00 53 1009.2
20260505124635 42 350 7.0 12.0 0.00 0.00 0.00 56 1009.0
20260505124117 42 47 4.0 15.0 0.00 0.00 0.00 56 1008.9
20260505123617 42 256 3.0 11.0 0.00 0.00 0.00 56 1008.9
20260505123120 42 29 1.0 9.0 0.00 0.00 0.00 57 1008.7
20260505122622 42 290 4.0 10.0 0.00 0.00 0.00 57 1008.6
20260505122124 42 280 5.0 10.0 0.00 0.00 0.00 56 1008.5
20260505121646 42 42 2.0 10.0 0.00 0.00 0.00 56 1008.4
20260505121127 42 47 5.0 11.0 0.00 0.00 0.00 56 1008.3
20260505120629 41 30 6.0 11.0 0.00 0.00 0.00 56 1008.2
20260505120112 41 281 2.0 12.0 0.00 0.00 0.00 57 1008.2
20260505115637 41 71 7.0 12.0 0.00 0.00 0.00 55 1008.1
20260505115119 41 342 6.0 12.0 0.00 0.00 0.00 55 1007.9
20260505114643 41 294 7.0 11.0 0.00 0.00 0.00 55 1007.7